createdAt,value
2023-04-27T00:00:53.039Z,8.20
2023-04-27T00:03:20.762Z,5.25
2023-04-27T00:05:48.992Z,10.30
2023-04-27T00:08:20.066Z,8.80
2023-04-27T00:10:47.902Z,12.80
2023-04-27T00:13:15.666Z,10.52
2023-04-27T00:15:45.409Z,8.52
2023-04-27T00:18:13.149Z,7.55
2023-04-27T00:20:41.022Z,5.78
2023-04-27T00:23:12.628Z,13.23
2023-04-27T00:25:40.232Z,9.57
2023-04-27T00:28:07.947Z,8.82
2023-04-27T00:30:36.256Z,6.25
2023-04-27T00:33:04.079Z,6.32
2023-04-27T00:35:33.558Z,10.90
2023-04-27T00:38:01.225Z,5.78
2023-04-27T00:40:29.086Z,5.75
2023-04-27T00:42:57.179Z,5.72
2023-04-27T00:45:24.916Z,7.55
2023-04-27T00:47:52.803Z,2.30
2023-04-27T00:50:29.055Z,6.90
2023-04-27T00:55:25.120Z,7.72
2023-04-27T00:57:52.884Z,3.42
2023-04-27T01:00:22.284Z,4.70
2023-04-27T01:02:51.182Z,3.20
2023-04-27T01:05:18.990Z,2.05
2023-04-27T01:07:49.421Z,9.35
2023-04-27T01:10:17.172Z,3.88
2023-04-27T01:12:44.761Z,8.30
2023-04-27T01:15:12.765Z,5.88
2023-04-27T01:17:41.028Z,5.53
2023-04-27T01:20:11.999Z,2.88
2023-04-27T01:22:40.582Z,7.78
2023-04-27T01:25:08.600Z,1.90
2023-04-27T01:27:36.367Z,2.55
2023-04-27T01:30:06.777Z,2.58
2023-04-27T01:32:34.663Z,9.75
2023-04-27T01:35:02.537Z,2.83
2023-04-27T01:37:30.412Z,5.20
2023-04-27T01:39:58.114Z,4.38
2023-04-27T01:42:26.550Z,3.20
2023-04-27T01:44:54.838Z,6.88
2023-04-27T01:47:22.874Z,3.45
2023-04-27T01:49:51.356Z,3.05
2023-04-27T01:52:19.100Z,5.10
2023-04-27T01:54:46.932Z,5.32
2023-04-27T01:57:14.940Z,9.13
2023-04-27T01:59:42.647Z,6.50
2023-04-27T02:02:11.503Z,4.45
2023-04-27T02:04:39.385Z,6.25
2023-04-27T02:07:07.167Z,3.03
2023-04-27T02:09:34.913Z,4.60
2023-04-27T02:12:05.644Z,4.28
2023-04-27T02:14:33.402Z,6.13
2023-04-27T02:17:01.228Z,4.18
2023-04-27T02:19:29.134Z,0.98
2023-04-27T02:21:56.892Z,7.97
2023-04-27T02:24:24.568Z,5.28
2023-04-27T02:26:52.426Z,7.18
2023-04-27T02:29:22.550Z,4.75
2023-04-27T02:31:50.641Z,7.55
2023-04-27T02:34:18.339Z,10.30
2023-04-27T02:36:46.033Z,5.97
2023-04-27T02:39:13.855Z,6.45
2023-04-27T02:41:41.565Z,7.53
2023-04-27T02:44:09.392Z,6.75
2023-04-27T02:46:37.177Z,4.88
2023-04-27T02:49:05.143Z,7.80
2023-04-27T02:51:35.315Z,7.03
2023-04-27T02:54:03.002Z,10.23
2023-04-27T02:56:31.526Z,8.32
2023-04-27T02:58:59.670Z,6.70
2023-04-27T03:01:31.446Z,4.63
2023-04-27T03:03:59.634Z,2.45
2023-04-27T03:06:27.844Z,8.77
2023-04-27T03:08:55.636Z,3.72
2023-04-27T03:11:27.421Z,4.38
2023-04-27T03:13:58.029Z,9.85
2023-04-27T03:16:25.928Z,4.72
2023-04-27T03:18:53.658Z,5.88
2023-04-27T03:21:21.550Z,3.90
2023-04-27T03:23:49.402Z,4.75
2023-04-27T03:26:17.263Z,9.20
2023-04-27T03:28:44.825Z,9.30
2023-04-27T03:31:13.599Z,2.97
2023-04-27T03:33:41.814Z,6.40
2023-04-27T03:36:11.242Z,6.32
2023-04-27T03:38:38.910Z,13.98
2023-04-27T03:41:06.878Z,8.68
2023-04-27T03:43:34.710Z,6.82
2023-04-27T03:46:02.564Z,10.50
2023-04-27T03:48:32.675Z,4.97
2023-04-27T03:51:01.917Z,5.78
2023-04-27T03:53:29.746Z,1.95
2023-04-27T03:55:57.489Z,7.30
2023-04-27T03:58:25.538Z,4.00
2023-04-27T04:00:54.826Z,7.85
2023-04-27T04:03:23.146Z,13.02
2023-04-27T04:05:50.933Z,12.30
2023-04-27T04:08:18.715Z,9.40
2023-04-27T04:10:46.618Z,9.35
2023-04-27T04:13:14.420Z,9.90
2023-04-27T04:15:42.320Z,3.20
2023-04-27T04:18:12.536Z,10.88
2023-04-27T04:20:40.294Z,8.77
2023-04-27T04:23:08.065Z,9.10
2023-04-27T04:25:40.437Z,5.32
2023-04-27T04:28:08.224Z,7.25
2023-04-27T04:30:35.997Z,5.18
2023-04-27T04:33:06.983Z,2.95
2023-04-27T04:35:34.765Z,11.05
2023-04-27T04:38:02.577Z,8.35
2023-04-27T04:40:30.462Z,4.90
2023-04-27T04:42:58.173Z,7.25
2023-04-27T04:45:26.125Z,11.07
2023-04-27T04:47:54.670Z,6.22
2023-04-27T04:50:23.379Z,11.10
2023-04-27T04:52:54.078Z,10.27
2023-04-27T04:55:21.836Z,9.68
2023-04-27T04:57:49.666Z,13.13
2023-04-27T05:00:17.428Z,16.40
2023-04-27T05:02:49.022Z,16.45
2023-04-27T05:05:17.253Z,29.33
2023-04-27T05:07:45.047Z,24.02
2023-04-27T05:10:12.766Z,11.73
2023-04-27T05:12:40.594Z,13.07
2023-04-27T05:15:08.595Z,34.22
2023-04-27T05:17:36.689Z,33.00
2023-04-27T05:20:05.131Z,20.20
2023-04-27T05:22:32.858Z,24.88
2023-04-27T05:25:01.060Z,11.65
2023-04-27T05:27:29.384Z,29.80
2023-04-27T05:29:57.262Z,33.80
2023-04-27T05:32:25.072Z,41.08
2023-04-27T05:34:53.089Z,23.85
2023-04-27T05:37:20.649Z,15.63
2023-04-27T05:39:48.463Z,27.48
2023-04-27T05:42:16.316Z,28.92
2023-04-27T05:44:44.117Z,15.63
2023-04-27T05:47:14.796Z,28.73
2023-04-27T05:49:42.681Z,18.88
2023-04-27T05:52:10.367Z,28.88
2023-04-27T05:54:38.326Z,27.63
2023-04-27T05:57:06.252Z,25.80
2023-04-27T05:59:34.028Z,17.02
2023-04-27T06:02:01.907Z,24.73
2023-04-27T06:04:33.409Z,19.58
2023-04-27T06:07:01.347Z,42.45
2023-04-27T06:09:30.112Z,26.35
2023-04-27T06:12:00.636Z,37.85
2023-04-27T06:14:28.350Z,18.08
2023-04-27T06:16:56.626Z,19.30
2023-04-27T06:19:27.027Z,12.82
2023-04-27T06:21:55.438Z,32.80
2023-04-27T06:24:25.682Z,32.67
2023-04-27T06:26:53.549Z,47.55
2023-04-27T06:29:21.375Z,21.17
2023-04-27T06:31:49.636Z,43.22
2023-04-27T06:34:17.532Z,30.38
2023-04-27T06:36:45.395Z,41.17
2023-04-27T06:39:13.630Z,39.55
2023-04-27T06:41:44.292Z,42.90
2023-04-27T06:44:11.957Z,42.17
2023-04-27T06:46:39.902Z,38.97
2023-04-27T06:49:07.785Z,59.55
2023-04-27T06:51:35.555Z,34.35
2023-04-27T06:54:04.078Z,34.30
2023-04-27T06:56:31.941Z,38.30
2023-04-27T06:58:59.714Z,40.38
2023-04-27T07:01:27.624Z,31.98
2023-04-27T07:03:55.970Z,25.55
2023-04-27T07:06:25.699Z,31.50
2023-04-27T07:08:56.069Z,24.42
2023-04-27T07:11:25.548Z,18.83
2023-04-27T07:13:53.312Z,27.13
2023-04-27T07:16:21.227Z,42.03
2023-04-27T07:18:49.215Z,31.80
2023-04-27T07:21:19.526Z,43.72
2023-04-27T07:23:47.437Z,24.52
2023-04-27T07:26:18.028Z,74.40
2023-04-27T07:28:47.352Z,28.92
2023-04-27T07:31:15.257Z,37.90
2023-04-27T07:33:43.131Z,22.77
2023-04-27T07:36:13.328Z,30.77
2023-04-27T07:38:43.577Z,34.63
2023-04-27T07:41:11.297Z,31.60
2023-04-27T07:43:39.009Z,24.95
2023-04-27T07:46:06.894Z,26.50
2023-04-27T07:48:34.815Z,34.88
2023-04-27T07:51:02.768Z,43.60
2023-04-27T07:53:33.123Z,40.90
2023-04-27T07:56:01.257Z,38.83
2023-04-27T07:58:29.144Z,55.80
2023-04-27T08:00:57.071Z,31.42
2023-04-27T08:03:25.591Z,25.88
2023-04-27T08:05:56.757Z,41.10
2023-04-27T08:08:24.908Z,48.42
2023-04-27T08:10:52.688Z,25.70
2023-04-27T08:13:23.210Z,35.80
2023-04-27T08:15:52.148Z,34.85
2023-04-27T08:18:19.971Z,45.25
2023-04-27T08:20:48.198Z,30.73
2023-04-27T08:23:17.128Z,31.23
2023-04-27T08:25:44.906Z,32.53
2023-04-27T08:28:15.343Z,42.70
2023-04-27T08:30:43.647Z,29.83
2023-04-27T08:33:11.566Z,42.38
2023-04-27T08:35:39.485Z,41.47
2023-04-27T08:38:07.355Z,26.27
2023-04-27T08:40:35.630Z,25.02
2023-04-27T08:43:03.602Z,68.05
2023-04-27T08:45:31.557Z,34.53
2023-04-27T08:47:59.432Z,24.83
2023-04-27T08:50:30.043Z,32.05
2023-04-27T08:53:00.078Z,36.83
2023-04-27T08:57:56.684Z,25.45
2023-04-27T09:00:25.626Z,39.70
2023-04-27T09:02:54.387Z,33.72
2023-04-27T09:05:25.040Z,31.00
2023-04-27T09:08:05.750Z,30.60
2023-04-27T09:10:44.758Z,37.75
2023-04-27T09:13:12.707Z,29.17
2023-04-27T09:15:48.585Z,51.05
2023-04-27T09:18:25.851Z,29.45
2023-04-27T09:20:54.630Z,36.95
2023-04-27T09:23:29.577Z,24.67
2023-04-27T09:26:01.170Z,14.52
2023-04-27T09:28:29.699Z,14.90
2023-04-27T09:30:58.325Z,18.42
2023-04-27T09:33:27.021Z,50.97
2023-04-27T09:35:55.190Z,31.27
2023-04-27T09:38:23.422Z,20.25
2023-04-27T09:40:52.007Z,28.40
2023-04-27T09:43:23.445Z,30.05
2023-04-27T09:45:51.550Z,41.95
2023-04-27T09:48:21.783Z,43.45
2023-04-27T09:50:51.532Z,46.08
2023-04-27T09:53:58.284Z,50.95
2023-04-27T09:56:28.526Z,38.95
2023-04-27T09:59:02.604Z,48.33
2023-04-27T10:01:37.494Z,36.95
2023-04-27T10:04:24.707Z,40.30
2023-04-27T10:06:52.771Z,34.10
2023-04-27T10:09:24.181Z,27.92
2023-04-27T10:11:52.635Z,16.00
2023-04-27T10:14:22.323Z,16.70
2023-04-27T10:16:57.524Z,45.42
2023-04-27T10:19:25.876Z,40.55
2023-04-27T10:22:08.131Z,23.63
2023-04-27T10:27:12.359Z,21.98
2023-04-27T10:29:42.064Z,27.83
2023-04-27T10:32:14.042Z,26.92
2023-04-27T10:34:42.766Z,28.38
2023-04-27T10:37:11.066Z,51.88
2023-04-27T10:39:48.684Z,27.67
2023-04-27T10:42:28.463Z,25.52
2023-04-27T10:44:59.114Z,28.90
2023-04-27T10:47:41.483Z,29.52
2023-04-27T10:52:43.759Z,19.58
2023-04-27T10:55:18.404Z,27.33
2023-04-27T10:57:53.505Z,23.58
2023-04-27T11:00:25.679Z,19.73
2023-04-27T11:02:54.977Z,31.00
2023-04-27T11:05:32.965Z,24.08
2023-04-27T11:08:10.937Z,23.20
2023-04-27T11:10:46.367Z,11.50
2023-04-27T11:13:18.402Z,29.05
2023-04-27T11:15:50.748Z,19.38
2023-04-27T11:18:19.439Z,18.10
2023-04-27T11:20:50.881Z,22.00
2023-04-27T11:23:29.262Z,12.82
2023-04-27T11:25:59.646Z,24.08
2023-04-27T11:28:27.662Z,22.05
2023-04-27T11:30:59.535Z,34.92
2023-04-27T11:33:28.091Z,21.92
2023-04-27T11:35:56.751Z,17.35
2023-04-27T11:38:24.617Z,24.13
2023-04-27T11:41:02.600Z,22.38
2023-04-27T11:43:30.546Z,25.67
2023-04-27T11:46:00.086Z,26.17
2023-04-27T11:48:29.272Z,28.85
2023-04-27T11:51:01.915Z,23.02
2023-04-27T11:53:37.099Z,25.65
2023-04-27T11:56:06.872Z,24.77
2023-04-27T11:58:35.872Z,15.32
2023-04-27T12:01:05.041Z,18.65
2023-04-27T12:03:35.286Z,19.58
2023-04-27T12:06:21.500Z,19.45
2023-04-27T12:08:52.631Z,13.90
2023-04-27T12:11:21.110Z,21.80
2023-04-27T12:13:54.898Z,8.93
2023-04-27T12:16:24.161Z,16.60
2023-04-27T12:18:52.049Z,16.10
2023-04-27T12:21:20.520Z,20.60
2023-04-27T12:23:48.224Z,22.00
2023-04-27T12:26:16.690Z,21.58
2023-04-27T12:28:45.719Z,13.15
2023-04-27T12:31:15.178Z,43.67
2023-04-27T12:33:43.129Z,18.70
2023-04-27T12:36:11.139Z,30.98
2023-04-27T12:38:40.609Z,27.65
2023-04-27T12:41:08.625Z,28.33
2023-04-27T12:43:38.625Z,16.63
2023-04-27T12:46:07.596Z,29.17
2023-04-27T12:48:35.457Z,16.77
2023-04-27T12:51:03.653Z,22.67
2023-04-27T12:53:31.510Z,29.10
2023-04-27T12:56:00.823Z,15.82
2023-04-27T12:58:28.783Z,31.10
2023-04-27T13:01:01.067Z,17.50
2023-04-27T13:03:29.407Z,48.80
2023-04-27T13:05:57.395Z,14.52
2023-04-27T13:08:25.170Z,26.10
2023-04-27T13:10:53.135Z,18.27
2023-04-27T13:13:21.130Z,17.00
2023-04-27T13:15:48.918Z,17.77
2023-04-27T13:18:17.122Z,17.77
2023-04-27T13:20:45.055Z,20.92
2023-04-27T13:23:13.030Z,19.45
2023-04-27T13:25:41.148Z,18.92
2023-04-27T13:28:09.014Z,23.15
2023-04-27T13:30:36.834Z,32.97
2023-04-27T13:33:21.179Z,30.65
2023-04-27T13:35:52.223Z,16.27
2023-04-27T13:38:23.306Z,20.23
2023-04-27T13:40:51.141Z,14.50
2023-04-27T13:43:19.694Z,26.65
2023-04-27T13:45:49.697Z,20.63
2023-04-27T13:48:17.508Z,32.45
2023-04-27T13:50:45.162Z,24.75
2023-04-27T13:53:12.992Z,20.27
2023-04-27T13:55:40.632Z,26.92
2023-04-27T13:58:08.501Z,16.38
2023-04-27T14:00:37.460Z,23.45
2023-04-27T14:03:05.754Z,20.42
2023-04-27T14:05:33.644Z,15.15
2023-04-27T14:08:01.593Z,12.57
2023-04-27T14:10:29.195Z,11.80
2023-04-27T14:12:57.575Z,26.48
2023-04-27T14:15:25.373Z,21.27
2023-04-27T14:17:53.192Z,16.80
2023-04-27T14:20:21.585Z,37.28
2023-04-27T14:22:49.266Z,8.75
2023-04-27T14:25:17.051Z,27.38
2023-04-27T14:27:44.778Z,20.92
2023-04-27T14:30:12.699Z,10.68
2023-04-27T14:32:40.440Z,14.00
2023-04-27T14:35:08.636Z,24.77
2023-04-27T14:37:36.369Z,10.23
2023-04-27T14:40:05.214Z,18.27
2023-04-27T14:42:33.197Z,12.55
2023-04-27T14:45:00.962Z,12.80
2023-04-27T14:47:28.736Z,15.70
2023-04-27T14:49:56.581Z,12.68
2023-04-27T14:52:24.379Z,18.77
2023-04-27T14:54:53.573Z,10.80
2023-04-27T14:57:21.416Z,6.15
2023-04-27T14:59:49.260Z,14.68
2023-04-27T15:02:18.922Z,6.30
2023-04-27T15:04:46.858Z,24.08
2023-04-27T15:07:14.751Z,12.00
2023-04-27T15:09:44.819Z,18.13
2023-04-27T15:12:13.014Z,19.35
2023-04-27T15:14:40.973Z,13.05
2023-04-27T15:17:08.679Z,14.88
2023-04-27T15:19:36.586Z,13.52
2023-04-27T15:22:04.270Z,10.63
2023-04-27T15:24:32.129Z,19.58
2023-04-27T15:26:59.876Z,3.75
2023-04-27T15:29:27.482Z,7.30
2023-04-27T15:31:55.371Z,17.88
2023-04-27T15:34:23.564Z,4.22
2023-04-27T15:36:51.455Z,11.80
2023-04-27T15:39:19.893Z,10.43
2023-04-27T15:41:47.598Z,3.63
2023-04-27T15:44:15.447Z,10.35
2023-04-27T15:46:43.359Z,8.93
2023-04-27T15:49:12.743Z,4.30
2023-04-27T15:51:40.662Z,7.18
2023-04-27T15:54:08.437Z,11.93
2023-04-27T15:56:36.243Z,4.07
2023-04-27T15:59:04.697Z,9.45
2023-04-27T16:01:33.690Z,10.90
2023-04-27T16:04:01.920Z,9.10
2023-04-27T16:06:34.170Z,7.82
2023-04-27T16:09:04.711Z,11.25
2023-04-27T16:11:32.553Z,10.18
2023-04-27T16:14:02.306Z,13.23
2023-04-27T16:16:30.251Z,8.57
2023-04-27T16:18:58.644Z,4.95
2023-04-27T16:21:26.926Z,3.92
2023-04-27T16:23:57.788Z,4.47
2023-04-27T16:26:27.752Z,3.13
2023-04-27T16:28:56.741Z,5.18
2023-04-27T16:31:24.465Z,5.18
2023-04-27T16:33:52.788Z,4.68
2023-04-27T16:36:21.493Z,5.78
2023-04-27T16:38:49.908Z,11.65
2023-04-27T16:41:17.719Z,8.30
2023-04-27T16:43:46.356Z,7.25
2023-04-27T16:46:15.084Z,17.80
2023-04-27T16:48:42.702Z,11.73
2023-04-27T16:51:13.382Z,13.40
2023-04-27T16:53:41.475Z,15.95
2023-04-27T16:56:10.147Z,10.07
2023-04-27T16:58:37.835Z,10.45
2023-04-27T17:01:06.526Z,5.88
2023-04-27T17:03:36.201Z,9.85
2023-04-27T17:06:04.103Z,3.50
2023-04-27T17:08:31.790Z,9.70
2023-04-27T17:10:59.727Z,3.03
2023-04-27T17:13:27.494Z,5.32
2023-04-27T17:15:55.452Z,4.57
2023-04-27T17:18:23.329Z,7.35
2023-04-27T17:20:51.363Z,4.20
2023-04-27T17:23:19.233Z,5.72
2023-04-27T17:25:46.893Z,6.07
2023-04-27T17:28:14.420Z,5.40
2023-04-27T17:30:42.635Z,3.00
2023-04-27T17:33:10.638Z,4.30
2023-04-27T17:35:38.366Z,4.25
2023-04-27T17:38:06.347Z,2.20
2023-04-27T17:40:34.136Z,5.97
2023-04-27T17:43:01.867Z,4.00
2023-04-27T17:45:29.616Z,5.63
2023-04-27T17:47:57.431Z,4.68
2023-04-27T17:50:29.424Z,6.53
2023-04-27T17:52:57.067Z,2.92
2023-04-27T17:55:25.184Z,5.07
2023-04-27T17:57:52.998Z,6.88
2023-04-27T18:00:21.455Z,7.65
2023-04-27T18:02:50.312Z,5.57
2023-04-27T18:05:18.321Z,10.75
2023-04-27T18:07:46.733Z,14.82
2023-04-27T18:10:14.457Z,16.30
2023-04-27T18:12:42.361Z,20.45
2023-04-27T18:15:10.371Z,14.88
2023-04-27T18:17:37.973Z,16.17
2023-04-27T18:20:09.355Z,12.32
2023-04-27T18:22:39.436Z,12.82
2023-04-27T18:25:07.387Z,10.90
2023-04-27T18:27:37.520Z,8.70
2023-04-27T18:30:05.652Z,8.10
2023-04-27T18:32:34.623Z,11.90
2023-04-27T18:35:02.915Z,7.35
2023-04-27T18:37:30.815Z,6.93
2023-04-27T18:39:58.350Z,4.82
2023-04-27T18:42:26.660Z,6.45
2023-04-27T18:45:00.778Z,7.97
2023-04-27T18:47:28.928Z,8.02
2023-04-27T18:49:56.652Z,8.10
2023-04-27T18:52:24.398Z,9.00
2023-04-27T18:54:52.192Z,5.68
2023-04-27T18:57:19.887Z,5.18
2023-04-27T18:59:47.729Z,3.45
2023-04-27T19:02:15.552Z,11.27
2023-04-27T19:04:52.849Z,14.90
2023-04-27T19:07:28.407Z,13.98
2023-04-27T19:09:56.102Z,9.10
2023-04-27T19:12:24.388Z,5.30
2023-04-27T19:14:52.522Z,5.00
2023-04-27T19:17:20.468Z,1.73
2023-04-27T19:19:48.507Z,2.92
2023-04-27T19:22:16.309Z,3.30
2023-04-27T19:24:44.080Z,2.30
2023-04-27T19:27:11.976Z,4.72
2023-04-27T19:29:50.111Z,4.55
2023-04-27T19:32:17.951Z,1.58
2023-04-27T19:34:45.631Z,3.30
2023-04-27T19:37:13.578Z,6.93
2023-04-27T19:39:41.194Z,3.78
2023-04-27T19:42:08.802Z,3.65
2023-04-27T19:44:36.617Z,2.83
2023-04-27T19:47:04.280Z,3.00
2023-04-27T19:49:35.234Z,2.15
2023-04-27T19:52:02.895Z,4.70
2023-04-27T19:54:30.614Z,5.28
2023-04-27T19:56:58.343Z,4.05
2023-04-27T19:59:27.256Z,2.50
2023-04-27T20:01:55.404Z,6.88
2023-04-27T20:04:24.155Z,14.18
2023-04-27T20:06:52.170Z,10.02
2023-04-27T20:09:19.974Z,8.40
2023-04-27T20:11:47.772Z,7.60
2023-04-27T20:14:15.742Z,5.07
2023-04-27T20:16:43.601Z,2.80
2023-04-27T20:19:12.553Z,2.22
2023-04-27T20:21:40.445Z,4.47
2023-04-27T20:24:08.329Z,8.93
2023-04-27T20:26:35.970Z,6.22
2023-04-27T20:29:03.924Z,3.67
2023-04-27T20:31:31.518Z,2.53
2023-04-27T20:33:59.362Z,4.68
2023-04-27T20:36:27.705Z,5.00
2023-04-27T20:38:55.478Z,4.10
2023-04-27T20:41:23.727Z,7.78
2023-04-27T20:43:52.509Z,1.77
2023-04-27T20:46:23.357Z,1.60
2023-04-27T20:48:50.979Z,7.72
2023-04-27T20:51:19.283Z,2.97
2023-04-27T20:53:46.949Z,3.15
2023-04-27T20:56:15.173Z,2.03
2023-04-27T20:58:42.910Z,3.92
2023-04-27T21:01:11.045Z,2.28
2023-04-27T21:03:39.450Z,2.35
2023-04-27T21:06:07.765Z,5.68
2023-04-27T21:08:36.061Z,4.90
2023-04-27T21:11:04.010Z,2.63
2023-04-27T21:13:31.679Z,5.00
2023-04-27T21:15:59.447Z,5.70
2023-04-27T21:18:30.093Z,6.78
2023-04-27T21:20:58.237Z,4.30
2023-04-27T21:23:25.898Z,3.97
2023-04-27T21:25:53.680Z,5.32
2023-04-27T21:28:21.687Z,5.85
2023-04-27T21:30:49.377Z,8.80
2023-04-27T21:33:17.244Z,5.38
2023-04-27T21:35:47.114Z,6.22
2023-04-27T21:38:14.665Z,5.30
2023-04-27T21:40:42.327Z,2.35
2023-04-27T21:43:10.014Z,2.83
2023-04-27T21:45:38.173Z,4.35
2023-04-27T21:48:05.976Z,4.05
2023-04-27T21:50:33.754Z,3.78
2023-04-27T21:53:01.512Z,9.13
2023-04-27T21:55:29.152Z,3.72
2023-04-27T21:57:57.239Z,3.15
2023-04-27T22:00:25.945Z,3.35
2023-04-27T22:02:53.811Z,3.13
2023-04-27T22:05:21.675Z,3.03
2023-04-27T22:07:49.312Z,3.65
2023-04-27T22:10:16.997Z,4.10
2023-04-27T22:12:44.860Z,3.47
2023-04-27T22:15:12.725Z,4.10
2023-04-27T22:17:40.714Z,2.88
2023-04-27T22:20:11.350Z,1.80
2023-04-27T22:22:39.098Z,10.25
2023-04-27T22:25:07.836Z,5.28
2023-04-27T22:27:44.119Z,2.88
2023-04-27T22:30:13.338Z,3.53
2023-04-27T22:32:41.552Z,4.70
2023-04-27T22:35:24.699Z,4.00
2023-04-27T22:37:55.388Z,4.35
2023-04-27T22:40:23.075Z,1.85
2023-04-27T22:42:50.922Z,3.08
2023-04-27T22:45:18.889Z,3.33
2023-04-27T22:47:46.719Z,5.65
2023-04-27T22:50:14.633Z,4.40
2023-04-27T22:52:43.136Z,2.63
2023-04-27T22:55:11.353Z,5.63
2023-04-27T22:57:39.286Z,4.45
2023-04-27T23:00:11.292Z,1.63
2023-04-27T23:02:44.062Z,2.53
2023-04-27T23:05:12.609Z,2.33
2023-04-27T23:07:43.688Z,3.25
2023-04-27T23:10:11.964Z,3.45
2023-04-27T23:12:39.977Z,2.80
2023-04-27T23:15:07.947Z,3.50
2023-04-27T23:17:35.991Z,8.65
2023-04-27T23:20:11.111Z,2.22
2023-04-27T23:22:44.939Z,1.27
2023-04-27T23:25:12.871Z,2.30
2023-04-27T23:27:40.463Z,1.55
2023-04-27T23:30:08.531Z,2.75
2023-04-27T23:32:36.931Z,2.25
2023-04-27T23:35:04.684Z,4.13
2023-04-27T23:37:32.601Z,3.95
2023-04-27T23:40:00.340Z,4.15
2023-04-27T23:42:27.948Z,4.70
2023-04-27T23:44:55.544Z,3.92
2023-04-27T23:47:23.504Z,4.07
2023-04-27T23:49:51.205Z,4.15
2023-04-27T23:52:19.021Z,6.75
2023-04-27T23:54:46.676Z,3.95
2023-04-27T23:57:16.205Z,4.25
2023-04-27T23:59:44.350Z,8.38
